sensor_id;sensor_type;location;lat;lon;timestamp;pressure;altitude;pressure_sealevel;temperature;humidity
16461;BME280;8341;42.048;24.650;2022-12-18T00:00:46;97822.16;;;11.63;100.00
16461;BME280;8341;42.048;24.650;2022-12-18T00:03:13;97828.84;;;11.62;100.00
16461;BME280;8341;42.048;24.650;2022-12-18T00:05:46;97835.81;;;11.63;100.00
16461;BME280;8341;42.048;24.650;2022-12-18T00:08:13;97845.59;;;11.55;100.00
16461;BME280;8341;42.048;24.650;2022-12-18T00:10:40;97848.78;;;11.54;100.00
16461;BME280;8341;42.048;24.650;2022-12-18T00:13:07;97851.16;;;11.61;100.00
16461;BME280;8341;42.048;24.650;2022-12-18T00:15:35;97854.03;;;11.66;100.00
16461;BME280;8341;42.048;24.650;2022-12-18T00:18:02;97870.75;;;11.68;100.00
16461;BME280;8341;42.048;24.650;2022-12-18T00:20:29;97870.41;;;11.66;100.00
16461;BME280;8341;42.048;24.650;2022-12-18T00:22:56;97874.03;;;11.40;100.00
16461;BME280;8341;42.048;24.650;2022-12-18T00:25:23;97875.88;;;11.33;100.00
16461;BME280;8341;42.048;24.650;2022-12-18T00:27:50;97868.72;;;11.45;100.00
16461;BME280;8341;42.048;24.650;2022-12-18T00:30:16;97880.22;;;11.49;100.00
16461;BME280;8341;42.048;24.650;2022-12-18T00:32:45;97890.38;;;11.49;100.00
16461;BME280;8341;42.048;24.650;2022-12-18T00:35:11;97884.75;;;11.52;100.00
16461;BME280;8341;42.048;24.650;2022-12-18T00:37:38;97888.97;;;11.53;100.00
16461;BME280;8341;42.048;24.650;2022-12-18T00:40:06;97883.53;;;11.53;100.00
16461;BME280;8341;42.048;24.650;2022-12-18T00:42:35;97898.69;;;11.54;100.00
16461;BME280;8341;42.048;24.650;2022-12-18T00:45:19;97898.13;;;11.50;100.00
16461;BME280;8341;42.048;24.650;2022-12-18T00:47:48;97912.66;;;11.56;100.00
16461;BME280;8341;42.048;24.650;2022-12-18T00:50:14;97910.38;;;11.55;100.00
16461;BME280;8341;42.048;24.650;2022-12-18T00:52:41;97908.41;;;11.55;100.00
16461;BME280;8341;42.048;24.650;2022-12-18T00:55:08;97908.28;;;11.50;100.00
16461;BME280;8341;42.048;24.650;2022-12-18T00:57:35;97907.66;;;11.55;100.00
16461;BME280;8341;42.048;24.650;2022-12-18T01:00:03;97919.63;;;11.57;100.00
16461;BME280;8341;42.048;24.650;2022-12-18T01:02:30;97913.28;;;11.51;100.00
16461;BME280;8341;42.048;24.650;2022-12-18T01:04:58;97910.31;;;11.31;100.00
16461;BME280;8341;42.048;24.650;2022-12-18T01:07:25;97919.28;;;11.31;100.00
16461;BME280;8341;42.048;24.650;2022-12-18T01:09:52;97914.09;;;11.43;100.00
16461;BME280;8341;42.048;24.650;2022-12-18T01:12:18;97922.38;;;11.48;100.00
16461;BME280;8341;42.048;24.650;2022-12-18T01:14:45;97918.44;;;11.49;100.00
16461;BME280;8341;42.048;24.650;2022-12-18T01:17:12;97923.00;;;11.52;100.00
16461;BME280;8341;42.048;24.650;2022-12-18T01:19:39;97915.91;;;11.37;100.00
16461;BME280;8341;42.048;24.650;2022-12-18T01:22:08;97915.50;;;11.29;100.00
16461;BME280;8341;42.048;24.650;2022-12-18T01:24:35;97909.84;;;11.32;100.00
16461;BME280;8341;42.048;24.650;2022-12-18T01:27:02;97917.56;;;11.43;100.00
16461;BME280;8341;42.048;24.650;2022-12-18T01:29:29;97906.63;;;11.43;100.00
16461;BME280;8341;42.048;24.650;2022-12-18T01:31:56;97915.66;;;11.58;100.00
16461;BME280;8341;42.048;24.650;2022-12-18T01:34:23;97916.28;;;11.62;100.00
16461;BME280;8341;42.048;24.650;2022-12-18T01:36:49;97915.34;;;11.65;100.00
16461;BME280;8341;42.048;24.650;2022-12-18T01:39:19;97916.56;;;11.73;100.00
16461;BME280;8341;42.048;24.650;2022-12-18T01:41:46;97923.50;;;11.83;100.00
16461;BME280;8341;42.048;24.650;2022-12-18T01:44:50;97921.34;;;11.87;100.00
16461;BME280;8341;42.048;24.650;2022-12-18T01:47:22;97925.88;;;11.90;100.00
16461;BME280;8341;42.048;24.650;2022-12-18T01:49:50;97929.25;;;11.85;100.00
16461;BME280;8341;42.048;24.650;2022-12-18T01:52:17;97933.25;;;11.75;100.00
16461;BME280;8341;42.048;24.650;2022-12-18T01:54:47;97934.00;;;11.76;100.00
16461;BME280;8341;42.048;24.650;2022-12-18T01:57:15;97937.47;;;11.76;100.00
16461;BME280;8341;42.048;24.650;2022-12-18T01:59:43;97930.50;;;11.75;100.00
16461;BME280;8341;42.048;24.650;2022-12-18T02:02:11;97937.19;;;11.74;100.00
16461;BME280;8341;42.048;24.650;2022-12-18T02:04:38;97942.78;;;11.80;100.00
16461;BME280;8341;42.048;24.650;2022-12-18T02:07:12;97941.09;;;11.82;100.00
16461;BME280;8341;42.048;24.650;2022-12-18T02:09:48;97941.09;;;11.82;100.00
16461;BME280;8341;42.048;24.650;2022-12-18T02:12:19;97947.31;;;11.83;100.00
16461;BME280;8341;42.048;24.650;2022-12-18T02:14:53;97946.56;;;11.82;100.00
16461;BME280;8341;42.048;24.650;2022-12-18T02:17:23;97954.75;;;11.82;100.00
16461;BME280;8341;42.048;24.650;2022-12-18T02:20:01;97945.81;;;11.82;100.00
16461;BME280;8341;42.048;24.650;2022-12-18T02:22:38;97948.13;;;11.74;100.00
16461;BME280;8341;42.048;24.650;2022-12-18T02:25:17;97941.78;;;11.68;100.00
16461;BME280;8341;42.048;24.650;2022-12-18T02:27:49;97944.81;;;11.70;100.00
16461;BME280;8341;42.048;24.650;2022-12-18T02:30:17;97945.69;;;11.67;100.00
16461;BME280;8341;42.048;24.650;2022-12-18T02:32:46;97936.78;;;11.58;100.00
16461;BME280;8341;42.048;24.650;2022-12-18T02:35:19;97955.16;;;11.57;100.00
16461;BME280;8341;42.048;24.650;2022-12-18T02:37:47;97949.97;;;11.59;100.00
16461;BME280;8341;42.048;24.650;2022-12-18T02:40:15;97945.44;;;11.56;100.00
16461;BME280;8341;42.048;24.650;2022-12-18T02:42:43;97947.88;;;11.54;100.00
16461;BME280;8341;42.048;24.650;2022-12-18T02:45:11;97942.41;;;11.54;100.00
16461;BME280;8341;42.048;24.650;2022-12-18T02:47:40;97941.97;;;11.47;100.00
16461;BME280;8341;42.048;24.650;2022-12-18T02:50:17;97944.56;;;11.41;100.00
16461;BME280;8341;42.048;24.650;2022-12-18T02:52:54;97946.09;;;11.33;100.00
16461;BME280;8341;42.048;24.650;2022-12-18T02:55:30;97944.03;;;11.19;100.00
16461;BME280;8341;42.048;24.650;2022-12-18T02:58:05;97944.63;;;11.23;100.00
16461;BME280;8341;42.048;24.650;2022-12-18T03:00:40;97939.50;;;11.07;100.00
16461;BME280;8341;42.048;24.650;2022-12-18T03:03:12;97942.22;;;11.16;100.00
16461;BME280;8341;42.048;24.650;2022-12-18T03:05:43;97939.78;;;11.18;100.00
16461;BME280;8341;42.048;24.650;2022-12-18T03:08:15;97945.72;;;11.16;100.00
16461;BME280;8341;42.048;24.650;2022-12-18T03:10:49;97949.50;;;11.19;100.00
16461;BME280;8341;42.048;24.650;2022-12-18T03:13:20;97948.59;;;11.13;100.00
16461;BME280;8341;42.048;24.650;2022-12-18T03:15:53;97951.63;;;11.15;100.00
16461;BME280;8341;42.048;24.650;2022-12-18T03:18:24;97958.13;;;11.17;100.00
16461;BME280;8341;42.048;24.650;2022-12-18T03:20:55;97964.19;;;11.21;100.00
16461;BME280;8341;42.048;24.650;2022-12-18T03:23:28;97964.63;;;11.29;100.00
16461;BME280;8341;42.048;24.650;2022-12-18T03:25:57;97961.00;;;11.23;100.00
16461;BME280;8341;42.048;24.650;2022-12-18T03:28:29;97957.31;;;11.35;100.00
16461;BME280;8341;42.048;24.650;2022-12-18T03:31:00;97963.97;;;11.43;100.00
16461;BME280;8341;42.048;24.650;2022-12-18T03:33:30;97974.91;;;11.43;100.00
16461;BME280;8341;42.048;24.650;2022-12-18T03:36:01;97982.22;;;11.37;100.00
16461;BME280;8341;42.048;24.650;2022-12-18T03:38:28;97990.56;;;11.43;100.00
16461;BME280;8341;42.048;24.650;2022-12-18T03:40:59;97990.66;;;11.48;100.00
16461;BME280;8341;42.048;24.650;2022-12-18T03:43:38;97998.44;;;11.41;100.00
16461;BME280;8341;42.048;24.650;2022-12-18T03:46:14;98009.69;;;11.43;100.00
16461;BME280;8341;42.048;24.650;2022-12-18T03:48:46;98004.03;;;11.46;100.00
16461;BME280;8341;42.048;24.650;2022-12-18T03:51:18;98002.06;;;11.47;100.00
16461;BME280;8341;42.048;24.650;2022-12-18T03:53:50;98011.47;;;11.46;100.00
16461;BME280;8341;42.048;24.650;2022-12-18T03:56:19;98009.97;;;11.36;100.00
16461;BME280;8341;42.048;24.650;2022-12-18T03:58:49;98018.19;;;11.17;100.00
16461;BME280;8341;42.048;24.650;2022-12-18T04:01:22;98021.38;;;11.25;100.00
16461;BME280;8341;42.048;24.650;2022-12-18T04:03:51;98018.97;;;11.27;100.00
16461;BME280;8341;42.048;24.650;2022-12-18T04:06:19;98022.59;;;11.24;100.00
16461;BME280;8341;42.048;24.650;2022-12-18T04:08:46;98026.97;;;11.30;100.00
16461;BME280;8341;42.048;24.650;2022-12-18T04:11:13;98028.50;;;11.31;100.00
16461;BME280;8341;42.048;24.650;2022-12-18T04:13:42;98030.16;;;11.29;100.00
16461;BME280;8341;42.048;24.650;2022-12-18T04:16:09;98032.59;;;11.27;100.00
16461;BME280;8341;42.048;24.650;2022-12-18T04:18:37;98035.34;;;11.27;100.00
16461;BME280;8341;42.048;24.650;2022-12-18T04:21:04;98038.81;;;11.27;100.00
16461;BME280;8341;42.048;24.650;2022-12-18T04:23:31;98034.44;;;11.21;100.00
16461;BME280;8341;42.048;24.650;2022-12-18T04:25:58;98038.69;;;11.22;100.00
16461;BME280;8341;42.048;24.650;2022-12-18T04:28:24;98035.94;;;11.22;100.00
16461;BME280;8341;42.048;24.650;2022-12-18T04:30:51;98032.91;;;11.20;100.00
16461;BME280;8341;42.048;24.650;2022-12-18T04:33:18;98038.97;;;11.06;100.00
16461;BME280;8341;42.048;24.650;2022-12-18T04:35:46;98038.22;;;11.05;100.00
16461;BME280;8341;42.048;24.650;2022-12-18T04:38:13;98040.47;;;11.07;100.00
16461;BME280;8341;42.048;24.650;2022-12-18T04:40:40;98048.53;;;11.01;100.00
16461;BME280;8341;42.048;24.650;2022-12-18T04:43:07;98043.38;;;10.94;100.00
16461;BME280;8341;42.048;24.650;2022-12-18T04:45:34;98056.72;;;10.92;100.00
16461;BME280;8341;42.048;24.650;2022-12-18T04:48:02;98058.41;;;10.99;100.00
16461;BME280;8341;42.048;24.650;2022-12-18T04:50:29;98066.88;;;10.92;100.00
16461;BME280;8341;42.048;24.650;2022-12-18T04:52:58;98062.63;;;10.91;100.00
16461;BME280;8341;42.048;24.650;2022-12-18T04:55:24;98071.09;;;10.75;100.00
16461;BME280;8341;42.048;24.650;2022-12-18T04:57:52;98082.13;;;10.62;100.00
16461;BME280;8341;42.048;24.650;2022-12-18T05:00:19;98083.81;;;10.59;100.00
16461;BME280;8341;42.048;24.650;2022-12-18T05:02:46;98088.84;;;10.70;100.00
16461;BME280;8341;42.048;24.650;2022-12-18T05:05:14;98092.16;;;10.65;100.00
16461;BME280;8341;42.048;24.650;2022-12-18T05:07:40;98093.06;;;10.62;100.00
16461;BME280;8341;42.048;24.650;2022-12-18T05:10:09;98094.25;;;10.61;100.00
16461;BME280;8341;42.048;24.650;2022-12-18T05:12:36;98103.19;;;10.52;100.00
16461;BME280;8341;42.048;24.650;2022-12-18T05:15:23;98099.53;;;10.55;100.00
16461;BME280;8341;42.048;24.650;2022-12-18T05:17:50;98108.22;;;10.63;100.00
16461;BME280;8341;42.048;24.650;2022-12-18T05:20:17;98111.09;;;10.59;100.00
16461;BME280;8341;42.048;24.650;2022-12-18T05:22:44;98115.16;;;10.55;100.00
16461;BME280;8341;42.048;24.650;2022-12-18T05:25:12;98118.63;;;10.55;100.00
16461;BME280;8341;42.048;24.650;2022-12-18T05:27:39;98121.34;;;10.55;100.00
16461;BME280;8341;42.048;24.650;2022-12-18T05:30:07;98126.69;;;10.59;100.00
16461;BME280;8341;42.048;24.650;2022-12-18T05:32:34;98134.44;;;10.60;100.00
16461;BME280;8341;42.048;24.650;2022-12-18T05:35:01;98138.06;;;10.66;100.00
16461;BME280;8341;42.048;24.650;2022-12-18T05:37:27;98136.09;;;10.67;100.00
16461;BME280;8341;42.048;24.650;2022-12-18T05:39:54;98144.16;;;10.71;100.00
16461;BME280;8341;42.048;24.650;2022-12-18T05:42:22;98147.50;;;10.75;100.00
16461;BME280;8341;42.048;24.650;2022-12-18T05:44:49;98149.91;;;10.73;100.00
16461;BME280;8341;42.048;24.650;2022-12-18T05:47:16;98156.28;;;10.79;100.00
16461;BME280;8341;42.048;24.650;2022-12-18T05:49:43;98163.56;;;10.73;100.00
16461;BME280;8341;42.048;24.650;2022-12-18T05:52:10;98163.25;;;10.80;100.00
16461;BME280;8341;42.048;24.650;2022-12-18T05:54:36;98147.78;;;10.67;100.00
16461;BME280;8341;42.048;24.650;2022-12-18T05:57:04;98168.13;;;10.76;100.00
16461;BME280;8341;42.048;24.650;2022-12-18T05:59:32;98177.19;;;10.73;100.00
16461;BME280;8341;42.048;24.650;2022-12-18T06:01:59;98173.53;;;10.66;100.00
16461;BME280;8341;42.048;24.650;2022-12-18T06:04:26;98176.59;;;10.78;100.00
16461;BME280;8341;42.048;24.650;2022-12-18T06:06:53;98184.97;;;10.83;100.00
16461;BME280;8341;42.048;24.650;2022-12-18T06:09:20;98179.34;;;10.78;100.00
16461;BME280;8341;42.048;24.650;2022-12-18T06:11:47;98182.19;;;10.74;100.00
16461;BME280;8341;42.048;24.650;2022-12-18T06:14:14;98189.59;;;10.74;100.00
16461;BME280;8341;42.048;24.650;2022-12-18T06:16:43;98197.78;;;10.74;100.00
16461;BME280;8341;42.048;24.650;2022-12-18T06:19:14;98201.34;;;10.92;100.00
16461;BME280;8341;42.048;24.650;2022-12-18T06:21:41;98202.56;;;10.91;100.00
16461;BME280;8341;42.048;24.650;2022-12-18T06:24:08;98202.41;;;10.86;100.00
16461;BME280;8341;42.048;24.650;2022-12-18T06:26:37;98205.16;;;10.95;100.00
16461;BME280;8341;42.048;24.650;2022-12-18T06:29:04;98216.78;;;10.86;100.00
16461;BME280;8341;42.048;24.650;2022-12-18T06:31:31;98215.88;;;10.89;100.00
16461;BME280;8341;42.048;24.650;2022-12-18T06:34:02;98221.97;;;10.93;100.00
16461;BME280;8341;42.048;24.650;2022-12-18T06:36:29;98227.44;;;10.93;100.00
16461;BME280;8341;42.048;24.650;2022-12-18T06:38:56;98230.16;;;10.93;100.00
16461;BME280;8341;42.048;24.650;2022-12-18T06:41:24;98239.72;;;10.98;100.00
16461;BME280;8341;42.048;24.650;2022-12-18T06:43:51;98234.88;;;11.02;100.00
16461;BME280;8341;42.048;24.650;2022-12-18T06:46:18;98230.66;;;11.01;100.00
16461;BME280;8341;42.048;24.650;2022-12-18T06:48:47;98249.59;;;11.04;100.00
16461;BME280;8341;42.048;24.650;2022-12-18T06:51:17;98251.00;;;11.09;100.00
16461;BME280;8341;42.048;24.650;2022-12-18T06:53:45;98256.28;;;11.12;100.00
16461;BME280;8341;42.048;24.650;2022-12-18T06:56:11;98254.63;;;11.15;100.00
16461;BME280;8341;42.048;24.650;2022-12-18T06:58:38;98255.69;;;11.08;100.00
16461;BME280;8341;42.048;24.650;2022-12-18T07:01:07;98255.69;;;11.17;100.00
16461;BME280;8341;42.048;24.650;2022-12-18T07:03:34;98265.28;;;11.22;100.00
16461;BME280;8341;42.048;24.650;2022-12-18T07:06:01;98254.97;;;11.26;100.00
16461;BME280;8341;42.048;24.650;2022-12-18T07:08:30;98264.69;;;11.27;100.00
16461;BME280;8341;42.048;24.650;2022-12-18T07:10:57;98270.91;;;11.27;100.00
16461;BME280;8341;42.048;24.650;2022-12-18T07:13:24;98261.97;;;11.27;100.00
16461;BME280;8341;42.048;24.650;2022-12-18T07:15:52;98272.72;;;11.30;100.00
16461;BME280;8341;42.048;24.650;2022-12-18T07:18:18;98274.06;;;11.17;100.00
16461;BME280;8341;42.048;24.650;2022-12-18T07:20:45;98273.78;;;11.24;100.00
16461;BME280;8341;42.048;24.650;2022-12-18T07:23:12;98280.63;;;11.28;100.00
16461;BME280;8341;42.048;24.650;2022-12-18T07:25:40;98288.97;;;11.34;100.00
16461;BME280;8341;42.048;24.650;2022-12-18T07:28:07;98283.34;;;11.38;100.00
16461;BME280;8341;42.048;24.650;2022-12-18T07:30:33;98287.63;;;11.39;100.00
16461;BME280;8341;42.048;24.650;2022-12-18T07:33:03;98283.84;;;11.45;100.00
16461;BME280;8341;42.048;24.650;2022-12-18T07:35:29;98296.56;;;11.39;100.00
16461;BME280;8341;42.048;24.650;2022-12-18T07:37:56;98296.13;;;11.41;100.00
16461;BME280;8341;42.048;24.650;2022-12-18T07:40:23;98313.56;;;11.43;100.00
16461;BME280;8341;42.048;24.650;2022-12-18T07:42:51;98309.59;;;11.26;100.00
16461;BME280;8341;42.048;24.650;2022-12-18T07:45:18;98314.16;;;11.38;100.00
16461;BME280;8341;42.048;24.650;2022-12-18T07:47:44;98310.66;;;11.28;100.00
16461;BME280;8341;42.048;24.650;2022-12-18T07:50:11;98314.75;;;11.24;100.00
16461;BME280;8341;42.048;24.650;2022-12-18T07:52:38;98315.91;;;11.14;100.00
16461;BME280;8341;42.048;24.650;2022-12-18T07:55:05;98318.38;;;11.21;100.00
16461;BME280;8341;42.048;24.650;2022-12-18T07:57:32;98321.22;;;11.17;100.00
16461;BME280;8341;42.048;24.650;2022-12-18T08:00:00;98320.91;;;11.15;100.00
16461;BME280;8341;42.048;24.650;2022-12-18T08:02:30;98325.78;;;11.20;100.00
16461;BME280;8341;42.048;24.650;2022-12-18T08:04:57;98330.22;;;11.27;100.00
16461;BME280;8341;42.048;24.650;2022-12-18T08:07:23;98327.72;;;11.11;99.01
16461;BME280;8341;42.048;24.650;2022-12-18T08:09:50;98340.50;;;11.23;100.00
16461;BME280;8341;42.048;24.650;2022-12-18T08:12:17;98336.00;;;11.29;100.00
16461;BME280;8341;42.048;24.650;2022-12-18T08:14:44;98338.56;;;11.32;99.20
16461;BME280;8341;42.048;24.650;2022-12-18T08:17:12;98343.44;;;11.38;99.01
16461;BME280;8341;42.048;24.650;2022-12-18T08:19:39;98343.28;;;11.32;99.47
16461;BME280;8341;42.048;24.650;2022-12-18T08:22:05;98348.16;;;11.37;98.22
16461;BME280;8341;42.048;24.650;2022-12-18T08:24:32;98350.75;;;11.41;97.16
16461;BME280;8341;42.048;24.650;2022-12-18T08:26:59;98348.59;;;11.36;96.29
16461;BME280;8341;42.048;24.650;2022-12-18T08:29:26;98345.91;;;11.45;96.52
16461;BME280;8341;42.048;24.650;2022-12-18T08:31:53;98345.59;;;11.43;94.50
16461;BME280;8341;42.048;24.650;2022-12-18T08:34:22;98351.38;;;11.45;93.88
16461;BME280;8341;42.048;24.650;2022-12-18T08:36:49;98350.75;;;11.41;94.42
16461;BME280;8341;42.048;24.650;2022-12-18T08:39:16;98353.34;;;11.53;94.66
16461;BME280;8341;42.048;24.650;2022-12-18T08:41:43;98357.63;;;11.54;92.80
16461;BME280;8341;42.048;24.650;2022-12-18T08:44:30;98354.72;;;11.49;93.49
16461;BME280;8341;42.048;24.650;2022-12-18T08:47:05;98349.44;;;11.54;92.46
16461;BME280;8341;42.048;24.650;2022-12-18T08:49:33;98345.44;;;11.46;93.36
16461;BME280;8341;42.048;24.650;2022-12-18T08:52:01;98352.38;;;11.29;90.84
16461;BME280;8341;42.048;24.650;2022-12-18T08:54:28;98345.59;;;11.03;88.07
16461;BME280;8341;42.048;24.650;2022-12-18T08:56:55;98335.22;;;11.28;93.35
16461;BME280;8341;42.048;24.650;2022-12-18T08:59:22;98331.72;;;11.28;95.35
16461;BME280;8341;42.048;24.650;2022-12-18T09:01:49;98342.31;;;11.17;89.72
16461;BME280;8341;42.048;24.650;2022-12-18T09:04:16;98333.88;;;11.33;95.45
16461;BME280;8341;42.048;24.650;2022-12-18T09:06:44;98342.13;;;11.51;98.75
16461;BME280;8341;42.048;24.650;2022-12-18T09:09:11;98337.97;;;11.68;97.63
16461;BME280;8341;42.048;24.650;2022-12-18T09:11:38;98330.94;;;11.67;92.79
16461;BME280;8341;42.048;24.650;2022-12-18T09:14:05;98337.78;;;11.63;94.09
16461;BME280;8341;42.048;24.650;2022-12-18T09:16:32;98337.97;;;11.86;94.11
16461;BME280;8341;42.048;24.650;2022-12-18T09:19:01;98338.31;;;11.88;95.50
16461;BME280;8341;42.048;24.650;2022-12-18T09:21:29;98337.59;;;11.66;92.21
16461;BME280;8341;42.048;24.650;2022-12-18T09:23:58;98331.50;;;11.44;91.77
16461;BME280;8341;42.048;24.650;2022-12-18T09:26:25;98332.38;;;11.41;93.54
16461;BME280;8341;42.048;24.650;2022-12-18T09:28:53;98335.16;;;11.50;93.10
16461;BME280;8341;42.048;24.650;2022-12-18T09:31:22;98335.16;;;11.50;91.13
16461;BME280;8341;42.048;24.650;2022-12-18T09:33:50;98339.06;;;11.40;90.75
16461;BME280;8341;42.048;24.650;2022-12-18T09:36:17;98338.78;;;11.47;91.33
16461;BME280;8341;42.048;24.650;2022-12-18T09:38:44;98337.91;;;11.50;89.23
16461;BME280;8341;42.048;24.650;2022-12-18T09:41:29;98343.66;;;11.61;88.55
16461;BME280;8341;42.048;24.650;2022-12-18T09:44:00;98342.72;;;11.46;88.91
16461;BME280;8341;42.048;24.650;2022-12-18T09:46:30;98347.25;;;11.40;87.74
16461;BME280;8341;42.048;24.650;2022-12-18T09:49:00;98337.50;;;11.30;89.46
16461;BME280;8341;42.048;24.650;2022-12-18T09:51:30;98336.03;;;11.07;89.51
16461;BME280;8341;42.048;24.650;2022-12-18T09:54:04;98339.25;;;11.06;90.96
16461;BME280;8341;42.048;24.650;2022-12-18T09:56:36;98350.16;;;11.06;92.36
16461;BME280;8341;42.048;24.650;2022-12-18T09:59:04;98342.84;;;11.03;93.11
16461;BME280;8341;42.048;24.650;2022-12-18T10:01:32;98346.66;;;11.05;92.85
16461;BME280;8341;42.048;24.650;2022-12-18T10:03:59;98339.44;;;11.20;90.20
16461;BME280;8341;42.048;24.650;2022-12-18T10:06:30;98330.84;;;11.31;89.09
16461;BME280;8341;42.048;24.650;2022-12-18T10:09:02;98348.78;;;11.41;89.46
16461;BME280;8341;42.048;24.650;2022-12-18T10:11:40;98339.69;;;11.44;89.04
16461;BME280;8341;42.048;24.650;2022-12-18T10:14:14;98346.75;;;11.23;88.38
16461;BME280;8341;42.048;24.650;2022-12-18T10:16:54;98350.09;;;11.27;90.13
16461;BME280;8341;42.048;24.650;2022-12-18T10:19:33;98351.75;;;11.25;90.38
16461;BME280;8341;42.048;24.650;2022-12-18T10:22:11;98351.00;;;11.24;90.39
16461;BME280;8341;42.048;24.650;2022-12-18T10:24:46;98345.75;;;11.39;91.21
16461;BME280;8341;42.048;24.650;2022-12-18T10:27:18;98340.88;;;11.43;90.79
16461;BME280;8341;42.048;24.650;2022-12-18T10:29:48;98341.16;;;11.36;88.19
16461;BME280;8341;42.048;24.650;2022-12-18T10:32:16;98341.81;;;11.09;91.69
16461;BME280;8341;42.048;24.650;2022-12-18T10:34:48;98340.69;;;11.28;89.52
16461;BME280;8341;42.048;24.650;2022-12-18T10:37:17;98333.78;;;11.06;88.84
16461;BME280;8341;42.048;24.650;2022-12-18T10:39:45;98347.94;;;10.92;88.33
16461;BME280;8341;42.048;24.650;2022-12-18T10:42:20;98345.78;;;11.08;89.03
16461;BME280;8341;42.048;24.650;2022-12-18T10:45:01;98361.16;;;11.24;86.81
16461;BME280;8341;42.048;24.650;2022-12-18T10:47:28;98362.00;;;11.12;88.35
16461;BME280;8341;42.048;24.650;2022-12-18T10:49:54;98360.41;;;11.23;88.92
16461;BME280;8341;42.048;24.650;2022-12-18T10:52:23;98356.41;;;11.15;87.30
16461;BME280;8341;42.048;24.650;2022-12-18T10:54:53;98357.63;;;11.14;86.66
16461;BME280;8341;42.048;24.650;2022-12-18T10:57:37;98368.03;;;11.07;86.71
16461;BME280;8341;42.048;24.650;2022-12-18T11:00:27;98356.19;;;11.01;89.19
16461;BME280;8341;42.048;24.650;2022-12-18T11:02:54;98362.34;;;11.14;86.89
16461;BME280;8341;42.048;24.650;2022-12-18T11:05:27;98356.53;;;11.12;85.60
16461;BME280;8341;42.048;24.650;2022-12-18T11:07:54;98361.69;;;11.10;86.79
16461;BME280;8341;42.048;24.650;2022-12-18T11:10:23;98353.19;;;11.08;86.30
16461;BME280;8341;42.048;24.650;2022-12-18T11:12:53;98359.94;;;11.25;87.09
16461;BME280;8341;42.048;24.650;2022-12-18T11:15:23;98354.03;;;11.26;86.61
16461;BME280;8341;42.048;24.650;2022-12-18T11:17:51;98379.09;;;11.34;85.66
16461;BME280;8341;42.048;24.650;2022-12-18T11:20:23;98368.59;;;11.23;87.26
16461;BME280;8341;42.048;24.650;2022-12-18T11:22:57;98370.66;;;11.10;85.71
16461;BME280;8341;42.048;24.650;2022-12-18T11:25:25;98375.91;;;11.05;86.47
16461;BME280;8341;42.048;24.650;2022-12-18T11:27:56;98375.78;;;11.08;88.59
16461;BME280;8341;42.048;24.650;2022-12-18T11:30:25;98372.47;;;10.83;88.46
16461;BME280;8341;42.048;24.650;2022-12-18T11:32:58;98376.09;;;10.80;88.95
16461;BME280;8341;42.048;24.650;2022-12-18T11:35:37;98380.56;;;10.95;88.56
16461;BME280;8341;42.048;24.650;2022-12-18T11:38:10;98377.72;;;10.99;87.26
16461;BME280;8341;42.048;24.650;2022-12-18T11:40:42;98376.38;;;11.03;88.20
16461;BME280;8341;42.048;24.650;2022-12-18T11:43:15;98381.38;;;11.05;87.78
16461;BME280;8341;42.048;24.650;2022-12-18T11:45:48;98391.28;;;11.11;87.55
16461;BME280;8341;42.048;24.650;2022-12-18T11:48:18;98393.44;;;11.16;87.69
16461;BME280;8341;42.048;24.650;2022-12-18T11:50:50;98391.91;;;11.15;87.64
16461;BME280;8341;42.048;24.650;2022-12-18T11:53:18;98407.09;;;11.16;87.98
16461;BME280;8341;42.048;24.650;2022-12-18T11:55:58;98400.09;;;11.15;88.09
16461;BME280;8341;42.048;24.650;2022-12-18T11:58:45;98400.59;;;11.23;85.15
16461;BME280;8341;42.048;24.650;2022-12-18T12:01:25;98406.59;;;11.09;84.56
16461;BME280;8341;42.048;24.650;2022-12-18T12:07:07;98392.38;;;11.14;85.75
16461;BME280;8341;42.048;24.650;2022-12-18T12:09:48;98406.34;;;11.25;85.60
16461;BME280;8341;42.048;24.650;2022-12-18T12:12:27;98396.69;;;11.33;86.00
16461;BME280;8341;42.048;24.650;2022-12-18T12:15:20;98386.66;;;11.30;82.56
16461;BME280;8341;42.048;24.650;2022-12-18T12:17:52;98395.91;;;11.32;85.36
16461;BME280;8341;42.048;24.650;2022-12-18T12:20:27;98400.28;;;11.21;85.32
16461;BME280;8341;42.048;24.650;2022-12-18T12:23:03;98393.84;;;11.06;85.50
16461;BME280;8341;42.048;24.650;2022-12-18T12:25:39;98390.56;;;11.20;85.51
16461;BME280;8341;42.048;24.650;2022-12-18T12:28:15;98406.53;;;11.30;84.52
16461;BME280;8341;42.048;24.650;2022-12-18T12:30:55;98404.69;;;11.27;85.26
16461;BME280;8341;42.048;24.650;2022-12-18T12:33:37;98413.06;;;11.33;85.34
16461;BME280;8341;42.048;24.650;2022-12-18T12:36:16;98414.72;;;11.30;84.69
16461;BME280;8341;42.048;24.650;2022-12-18T12:38:49;98408.50;;;11.30;84.33
16461;BME280;8341;42.048;24.650;2022-12-18T12:41:19;98427.84;;;11.14;86.14
16461;BME280;8341;42.048;24.650;2022-12-18T12:44:08;98418.44;;;11.15;83.70
16461;BME280;8341;42.048;24.650;2022-12-18T12:46:39;98418.19;;;11.22;83.13
16461;BME280;8341;42.048;24.650;2022-12-18T12:49:11;98425.16;;;11.23;83.55
16461;BME280;8341;42.048;24.650;2022-12-18T12:51:41;98429.34;;;11.15;84.04
16461;BME280;8341;42.048;24.650;2022-12-18T12:54:15;98427.28;;;11.19;82.99
16461;BME280;8341;42.048;24.650;2022-12-18T12:56:48;98446.28;;;11.01;84.63
16461;BME280;8341;42.048;24.650;2022-12-18T12:59:23;98435.22;;;10.83;86.83
16461;BME280;8341;42.048;24.650;2022-12-18T13:01:57;98447.72;;;10.93;86.70
16461;BME280;8341;42.048;24.650;2022-12-18T13:04:32;98434.00;;;10.84;87.13
16461;BME280;8341;42.048;24.650;2022-12-18T13:07:03;98455.53;;;10.82;87.38
16461;BME280;8341;42.048;24.650;2022-12-18T13:09:33;98460.28;;;10.68;88.08